Time;durP1;ratioP1;P1;durP2;ratioP2;P2;SDS_P1;SDS_P2;PMS_P1;PMS_P2;Temp;Humidity;BMP_temperature;BMP_pressure;BME280_temperature;BME280_humidity;BME280_pressure;Samples;Min_cycle;Max_cycle;Signal;HPM_P1;HPM_P2
2022/03/12 00:00:48;;;;;;;8.40;4.68;;;6.50;53.60;;;;;;5054674;28;20041;-72
2022/03/12 00:03:15;;;;;;;9.20;5.10;;;6.50;54.00;;;;;;5041920;28;20071;-71
2022/03/12 00:05:55;;;;;;;8.52;5.10;;;6.50;53.70;;;;;;5055008;28;20036;-71
2022/03/12 00:08:45;;;;;;;9.25;6.13;;;6.50;53.80;;;;;;5054782;28;20045;-72
2022/03/12 00:11:15;;;;;;;8.18;4.95;;;6.50;53.90;;;;;;5059545;28;20071;-72
2022/03/12 00:13:44;;;;;;;7.82;5.70;;;6.50;53.70;;;;;;5068085;28;20036;-73
2022/03/12 00:16:14;;;;;;;7.03;4.97;;;6.50;53.60;;;;;;5051655;28;20200;-72
2022/03/12 00:18:42;;;;;;;7.90;4.78;;;6.60;53.60;;;;;;5044254;28;20104;-72
2022/03/12 00:21:12;;;;;;;9.02;4.63;;;6.50;53.60;;;;;;5062117;28;20106;-72
2022/03/12 00:23:38;;;;;;;9.02;5.65;;;6.50;53.50;;;;;;5055036;28;20553;-73
2022/03/12 00:26:04;;;;;;;8.40;5.07;;;6.50;53.60;;;;;;5064797;28;20052;-73
2022/03/12 00:28:30;;;;;;;9.30;5.53;;;6.40;54.20;;;;;;5062811;28;20033;-72
2022/03/12 00:30:55;;;;;;;10.60;5.63;;;6.50;54.00;;;;;;5072626;28;20218;-72
2022/03/12 00:33:23;;;;;;;6.85;4.93;;;6.40;53.90;;;;;;5038471;28;20044;-72
2022/03/12 00:35:51;;;;;;;11.27;5.97;;;6.50;53.80;;;;;;5052977;28;20351;-72
2022/03/12 00:38:19;;;;;;;8.60;5.32;;;6.40;53.90;;;;;;5060046;28;20245;-72
2022/03/12 00:40:45;;;;;;;8.90;6.30;;;6.40;53.70;;;;;;5078123;28;20083;-72
2022/03/12 00:43:11;;;;;;;7.93;5.25;;;6.40;54.30;;;;;;5075398;28;20268;-72
2022/03/12 00:45:37;;;;;;;10.07;5.47;;;6.30;55.20;;;;;;5071295;28;20045;-72
2022/03/12 00:48:04;;;;;;;9.30;5.90;;;6.20;55.60;;;;;;5062068;28;20075;-72
2022/03/12 00:50:30;;;;;;;7.50;5.45;;;6.20;56.00;;;;;;5033601;28;20040;-73
2022/03/12 00:52:56;;;;;;;7.75;4.47;;;6.10;56.50;;;;;;5072794;28;20092;-72
2022/03/12 00:55:22;;;;;;;6.97;4.50;;;6.10;56.70;;;;;;5039163;28;20047;-72
2022/03/12 00:57:48;;;;;;;8.52;5.68;;;6.00;56.90;;;;;;5039143;28;20059;-72
2022/03/12 01:00:18;;;;;;;8.23;4.97;;;6.00;57.20;;;;;;5071644;28;20039;-72
2022/03/12 01:02:44;;;;;;;7.95;5.15;;;6.00;57.30;;;;;;5056348;28;20207;-72
2022/03/12 01:05:12;;;;;;;8.45;5.20;;;5.90;57.90;;;;;;5036358;28;20040;-72
2022/03/12 01:07:38;;;;;;;7.25;4.88;;;5.80;58.30;;;;;;5065576;28;20380;-72
2022/03/12 01:10:04;;;;;;;14.27;6.20;;;5.80;58.50;;;;;;5059061;28;20056;-73
2022/03/12 01:12:30;;;;;;;10.95;6.10;;;5.80;58.70;;;;;;5076750;28;20048;-73
2022/03/12 01:14:57;;;;;;;8.18;4.63;;;5.80;58.80;;;;;;5057154;28;20823;-73
2022/03/12 01:17:23;;;;;;;8.23;5.25;;;5.80;59.20;;;;;;5039042;28;20033;-72
2022/03/12 01:19:48;;;;;;;12.02;6.85;;;5.80;59.00;;;;;;5033960;28;20039;-72
2022/03/12 01:22:19;;;;;;;7.95;5.43;;;6.00;59.00;;;;;;5071039;28;20031;-73
2022/03/12 01:24:49;;;;;;;8.27;5.38;;;5.80;59.20;;;;;;5044705;28;20108;-73
2022/03/12 01:27:15;;;;;;;9.27;5.38;;;5.80;59.40;;;;;;5052037;28;20044;-73
2022/03/12 01:29:47;;;;;;;8.82;5.95;;;5.80;59.00;;;;;;5052269;28;20075;-73
2022/03/12 01:32:23;;;;;;;;;;;5.70;59.40;;;;;;5067395;28;20064;-73
2022/03/12 01:34:48;;;;;;;9.73;5.25;;;5.80;59.30;;;;;;5053793;28;19920;-73
2022/03/12 01:37:19;;;;;;;8.85;5.22;;;6.10;59.30;;;;;;5055716;28;20044;-73
2022/03/12 01:39:46;;;;;;;10.13;5.32;;;5.80;59.10;;;;;;5064970;28;20045;-73
2022/03/12 01:42:14;;;;;;;8.43;4.30;;;5.80;59.10;;;;;;5073290;28;20211;-73
2022/03/12 01:44:41;;;;;;;7.90;5.68;;;5.70;59.40;;;;;;5076226;28;20087;-73
2022/03/12 01:47:09;;;;;;;10.30;5.57;;;5.90;60.10;;;;;;5060484;28;20052;-73
2022/03/12 01:49:35;;;;;;;8.38;6.25;;;6.50;60.20;;;;;;5069718;28;20045;-73
2022/03/12 01:52:02;;;;;;;8.15;5.72;;;5.70;59.80;;;;;;5054289;28;20044;-72
2022/03/12 01:54:29;;;;;;;9.40;5.57;;;5.70;59.60;;;;;;5074572;28;20072;-73
2022/03/12 01:56:57;;;;;;;8.85;5.63;;;5.10;59.60;;;;;;5056015;28;20042;-73
2022/03/12 01:59:24;;;;;;;8.57;5.50;;;5.70;60.20;;;;;;5055932;28;20093;-73
2022/03/12 02:01:53;;;;;;;8.27;5.50;;;5.70;59.80;;;;;;5046566;28;20048;-72
2022/03/12 02:04:20;;;;;;;10.32;6.20;;;5.60;60.00;;;;;;5033829;28;20127;-73
2022/03/12 02:06:46;;;;;;;8.73;5.85;;;5.70;60.20;;;;;;5054533;28;20041;-73
2022/03/12 02:09:15;;;;;;;7.03;4.53;;;5.60;60.40;;;;;;5069215;28;20250;-73
2022/03/12 02:11:45;;;;;;;8.75;5.70;;;5.70;60.00;;;;;;5067919;28;20221;-73
2022/03/12 02:14:12;;;;;;;8.82;5.65;;;5.70;60.50;;;;;;5065499;28;20044;-73
2022/03/12 02:16:42;;;;;;;8.48;5.32;;;5.60;60.70;;;;;;5067203;28;20231;-73
2022/03/12 02:19:08;;;;;;;9.40;5.90;;;5.70;60.70;;;;;;5071815;28;20028;-73
2022/03/12 02:21:38;;;;;;;9.93;6.15;;;5.70;60.20;;;;;;5039998;28;20059;-73
2022/03/12 02:24:09;;;;;;;9.93;5.72;;;5.60;60.40;;;;;;5071022;28;20048;-72
2022/03/12 02:26:36;;;;;;;10.98;6.07;;;5.60;60.50;;;;;;5075882;28;20048;-73
2022/03/12 02:29:02;;;;;;;8.95;5.95;;;5.70;60.50;;;;;;5056012;28;20040;-72
2022/03/12 02:31:30;;;;;;;8.25;6.05;;;5.70;61.00;;;;;;5062094;28;20024;-72
2022/03/12 02:34:01;;;;;;;10.30;6.05;;;5.60;60.90;;;;;;5051944;28;20084;-72
2022/03/12 02:36:28;;;;;;;8.05;4.93;;;5.60;60.90;;;;;;5027021;28;20638;-72
2022/03/12 02:39:00;;;;;;;9.15;5.15;;;5.60;60.50;;;;;;5048007;28;20033;-72
2022/03/12 02:41:27;;;;;;;9.52;5.07;;;5.70;60.30;;;;;;5070154;28;20080;-72
2022/03/12 02:43:52;;;;;;;9.02;5.50;;;5.70;60.40;;;;;;5054222;28;20352;-72
2022/03/12 02:46:22;;;;;;;7.88;5.18;;;5.70;60.30;;;;;;5046003;28;20124;-72
2022/03/12 02:48:52;;;;;;;9.20;6.03;;;5.60;60.60;;;;;;5064601;28;20053;-73
2022/03/12 02:51:21;;;;;;;6.82;4.82;;;5.60;60.60;;;;;;5059465;28;20036;-73
2022/03/12 02:53:50;;;;;;;8.35;5.68;;;5.60;60.20;;;;;;5046950;28;20052;-74
2022/03/12 02:56:18;;;;;;;7.80;5.60;;;5.60;60.20;;;;;;5058765;28;20049;-73
2022/03/12 02:58:44;;;;;;;9.27;5.30;;;5.60;60.20;;;;;;5063484;28;20040;-74
2022/03/12 03:01:14;;;;;;;8.15;5.40;;;5.70;59.70;;;;;;5061745;28;20095;-73
2022/03/12 03:03:41;;;;;;;9.15;5.85;;;5.60;59.70;;;;;;5075703;28;20321;-72
2022/03/12 03:06:08;;;;;;;9.88;5.85;;;5.70;59.60;;;;;;5043019;28;20258;-72
2022/03/12 03:08:36;;;;;;;8.32;5.97;;;5.60;59.40;;;;;;5073612;28;20111;-72
2022/03/12 03:11:12;;;;;;;9.18;5.40;;;5.70;59.50;;;;;;5080741;28;20052;-72
2022/03/12 03:13:44;;;;;;;8.50;6.10;;;5.70;59.20;;;;;;5061781;28;20040;-72
2022/03/12 03:16:18;;;;;;;9.88;5.13;;;5.70;59.10;;;;;;5078043;28;20049;-73
2022/03/12 03:18:50;;;;;;;7.40;5.18;;;5.70;59.30;;;;;;5066004;28;20104;-73
2022/03/12 03:21:17;;;;;;;8.60;4.75;;;5.80;59.00;;;;;;5073357;28;20049;-73
2022/03/12 03:23:46;;;;;;;12.00;6.25;;;5.70;58.90;;;;;;5055073;28;20090;-72
2022/03/12 03:26:13;;;;;;;7.70;5.43;;;5.60;59.10;;;;;;5055894;28;20112;-73
2022/03/12 03:28:39;;;;;;;10.35;4.90;;;5.60;58.90;;;;;;5056113;28;20040;-72
2022/03/12 03:31:06;;;;;;;10.23;5.45;;;5.70;59.00;;;;;;5063482;28;20048;-71
2022/03/12 03:33:32;;;;;;;15.45;6.00;;;5.60;58.90;;;;;;5052265;28;20032;-72
2022/03/12 03:35:59;;;;;;;10.13;5.70;;;5.60;58.80;;;;;;5074338;28;20062;-71
2022/03/12 03:38:24;;;;;;;7.07;4.85;;;5.60;58.70;;;;;;5074370;28;20029;-72
2022/03/12 03:40:51;;;;;;;7.93;4.90;;;5.90;58.60;;;;;;5048748;28;20281;-72
2022/03/12 03:43:22;;;;;;;6.97;5.05;;;5.70;58.80;;;;;;5032624;28;20036;-72
2022/03/12 03:45:50;;;;;;;7.93;4.97;;;5.60;59.00;;;;;;5072482;28;20238;-72
2022/03/12 03:48:18;;;;;;;8.57;5.32;;;5.60;58.80;;;;;;5072685;28;20040;-73
2022/03/12 03:50:47;;;;;;;8.50;6.05;;;5.60;59.10;;;;;;5063232;28;20104;-72
2022/03/12 03:53:15;;;;;;;7.57;5.57;;;5.50;59.70;;;;;;5077897;28;20048;-72
2022/03/12 03:55:42;;;;;;;11.00;6.47;;;5.50;59.20;;;;;;5079072;28;20040;-72
2022/03/12 03:58:08;;;;;;;9.57;6.07;;;5.50;59.90;;;;;;5064711;28;20199;-73
2022/03/12 04:00:34;;;;;;;9.45;5.85;;;5.40;61.00;;;;;;5065625;28;20032;-73
2022/03/12 04:03:03;;;;;;;10.73;5.95;;;5.40;60.60;;;;;;5057838;28;20084;-73
2022/03/12 04:05:35;;;;;;;9.27;5.63;;;5.40;61.10;;;;;;5069815;28;20043;-73
2022/03/12 04:08:02;;;;;;;9.32;5.88;;;5.40;60.40;;;;;;5068678;28;20028;-73
2022/03/12 04:10:29;;;;;;;9.05;5.55;;;5.40;60.50;;;;;;5056283;28;20230;-72
2022/03/12 04:12:56;;;;;;;8.10;5.40;;;5.40;60.50;;;;;;5077515;28;20055;-72
2022/03/12 04:15:21;;;;;;;7.75;5.03;;;5.30;60.70;;;;;;5044252;28;20266;-72
2022/03/12 04:17:51;;;;;;;8.55;5.60;;;5.30;60.70;;;;;;5040692;28;20041;-73
2022/03/12 04:20:25;;;;;;;10.40;6.30;;;5.30;60.50;;;;;;5058995;28;20192;-72
2022/03/12 04:22:51;;;;;;;10.70;5.73;;;5.30;60.80;;;;;;5055447;28;20223;-72
2022/03/12 04:25:20;;;;;;;8.15;5.15;;;6.00;61.40;;;;;;5068042;28;20082;-72
2022/03/12 04:27:47;;;;;;;10.30;5.85;;;5.30;60.90;;;;;;5062284;28;20044;-72
2022/03/12 04:30:13;;;;;;;7.10;4.10;;;5.80;61.70;;;;;;5031257;28;20234;-72
2022/03/12 04:32:40;;;;;;;7.30;4.85;;;5.30;61.10;;;;;;5058325;28;20060;-72
2022/03/12 04:35:07;;;;;;;7.25;5.00;;;5.20;61.50;;;;;;5052312;28;20090;-72
2022/03/12 04:37:35;;;;;;;12.38;5.82;;;5.20;61.70;;;;;;5065798;28;20102;-73
2022/03/12 04:40:08;;;;;;;7.57;5.03;;;5.20;62.10;;;;;;5061941;28;20052;-73
2022/03/12 04:42:38;;;;;;;10.32;5.25;;;5.20;61.60;;;;;;5060093;28;20072;-73
2022/03/12 04:45:08;;;;;;;8.00;4.90;;;5.40;61.90;;;;;;5043724;28;20037;-73
2022/03/12 04:47:34;;;;;;;9.52;5.70;;;5.20;62.20;;;;;;5060615;28;20139;-73
2022/03/12 04:50:00;;;;;;;7.63;5.40;;;5.10;63.10;;;;;;5044042;28;20040;-73
2022/03/12 04:52:25;;;;;;;8.05;5.60;;;5.10;62.30;;;;;;5060057;28;20056;-73
2022/03/12 04:54:51;;;;;;;8.75;5.05;;;5.10;62.50;;;;;;5051595;28;20362;-74
2022/03/12 04:57:18;;;;;;;7.63;4.85;;;5.10;62.20;;;;;;5072773;28;20068;-73
2022/03/12 04:59:44;;;;;;;9.13;5.30;;;5.10;62.50;;;;;;5060661;28;20132;-72
2022/03/12 05:02:13;;;;;;;7.55;5.32;;;5.00;62.60;;;;;;5043792;28;20048;-72
2022/03/12 05:04:40;;;;;;;8.43;4.88;;;5.00;62.60;;;;;;5063841;28;20044;-72
2022/03/12 05:07:07;;;;;;;10.57;5.80;;;5.00;62.60;;;;;;5071442;28;20206;-73
2022/03/12 05:09:33;;;;;;;9.27;5.18;;;4.90;63.30;;;;;;5069011;28;20226;-73
2022/03/12 05:12:05;;;;;;;7.53;4.75;;;4.90;63.30;;;;;;5056157;28;20033;-72
2022/03/12 05:14:34;;;;;;;8.20;4.55;;;4.90;63.10;;;;;;5065965;28;20045;-73
2022/03/12 05:17:06;;;;;;;12.20;6.07;;;4.90;63.10;;;;;;5060052;28;20078;-72
2022/03/12 05:19:35;;;;;;;7.70;5.00;;;4.90;63.30;;;;;;5035813;28;20269;-72
2022/03/12 05:22:01;;;;;;;7.82;5.88;;;4.80;63.40;;;;;;5064559;28;20249;-72
2022/03/12 05:24:26;;;;;;;9.25;4.95;;;4.80;63.60;;;;;;5044538;28;20032;-72
2022/03/12 05:26:52;;;;;;;7.93;5.00;;;4.80;63.60;;;;;;5069797;28;20102;-72
2022/03/12 05:29:22;;;;;;;8.02;5.22;;;4.70;63.50;;;;;;5030723;28;20330;-72
2022/03/12 05:31:48;;;;;;;10.00;5.78;;;4.70;64.10;;;;;;5025062;28;20036;-73
2022/03/12 05:34:18;;;;;;;6.82;4.32;;;4.70;64.20;;;;;;5048943;28;20144;-72
2022/03/12 05:36:44;;;;;;;8.20;5.57;;;4.60;63.90;;;;;;5060189;28;20061;-72
2022/03/12 05:39:10;;;;;;;9.48;5.53;;;6.10;65.50;;;;;;5058007;28;20048;-71
2022/03/12 05:41:36;;;;;;;7.43;4.57;;;4.60;64.80;;;;;;5036644;28;20237;-72
2022/03/12 05:44:03;;;;;;;6.13;4.32;;;4.60;65.40;;;;;;5060323;28;20032;-71
2022/03/12 05:46:29;;;;;;;8.70;5.30;;;4.50;65.40;;;;;;5050742;28;20341;-71
2022/03/12 05:48:55;;;;;;;7.95;5.75;;;4.50;65.90;;;;;;5068397;28;20044;-72
2022/03/12 05:51:20;;;;;;;8.73;5.40;;;4.50;66.10;;;;;;5065108;28;20332;-72
2022/03/12 05:53:49;;;;;;;8.77;5.10;;;4.50;65.70;;;;;;5050841;28;20078;-72
2022/03/12 05:56:15;;;;;;;8.43;5.70;;;4.50;65.40;;;;;;5053945;28;20048;-72
2022/03/12 05:58:41;;;;;;;7.95;5.43;;;4.50;66.10;;;;;;5045430;28;20077;-72
2022/03/12 06:01:09;;;;;;;7.03;4.50;;;4.50;65.60;;;;;;5061751;28;20414;-72
2022/03/12 06:03:35;;;;;;;10.35;4.68;;;4.90;66.00;;;;;;5036723;28;20068;-72
2022/03/12 06:06:01;;;;;;;9.40;5.22;;;5.10;66.10;;;;;;5050764;28;20039;-72
2022/03/12 06:08:28;;;;;;;9.07;5.43;;;5.20;66.80;;;;;;5046374;28;20055;-71
2022/03/12 06:10:55;;;;;;;9.15;5.85;;;5.10;67.90;;;;;;5059940;28;20024;-73
2022/03/12 06:13:27;;;;;;;10.32;5.13;;;4.40;66.60;;;;;;5062901;28;20028;-71
2022/03/12 06:16:00;;;;;;;7.28;4.90;;;4.60;67.40;;;;;;5056959;28;20040;-72
2022/03/12 06:18:36;;;;;;;8.50;5.53;;;4.40;66.30;;;;;;5062591;28;20036;-73
2022/03/12 06:21:04;;;;;;;8.70;5.07;;;4.40;67.30;;;;;;5025924;28;20024;-72
2022/03/12 06:23:30;;;;;;;7.60;4.68;;;4.40;67.60;;;;;;5046409;28;20036;-72
2022/03/12 06:25:57;;;;;;;8.23;4.68;;;4.40;67.70;;;;;;5043912;28;20049;-72
2022/03/12 06:28:23;;;;;;;8.73;5.75;;;4.40;67.50;;;;;;5063493;28;20064;-72
2022/03/12 06:30:53;;;;;;;8.43;5.80;;;4.40;67.70;;;;;;5057066;28;20091;-72
2022/03/12 06:33:19;;;;;;;9.57;5.30;;;4.50;67.40;;;;;;5065907;28;20033;-72
2022/03/12 06:35:47;;;;;;;7.97;5.22;;;4.50;66.80;;;;;;5060841;28;20033;-72
2022/03/12 06:38:14;;;;;;;8.77;4.95;;;4.60;67.10;;;;;;5032791;28;20281;-72
2022/03/12 06:40:41;;;;;;;7.50;5.32;;;4.60;66.80;;;;;;5077705;28;20082;-72
2022/03/12 06:43:19;;;;;;;8.18;5.55;;;4.60;66.90;;;;;;5074202;28;20040;-72
2022/03/12 06:45:48;;;;;;;9.70;4.65;;;5.20;67.20;;;;;;5045197;28;20222;-71
2022/03/12 06:48:14;;;;;;;7.35;5.00;;;4.60;66.70;;;;;;5069247;28;20402;-72
2022/03/12 06:50:40;;;;;;;8.45;5.65;;;4.60;67.50;;;;;;5043758;28;20044;-71
2022/03/12 06:53:06;;;;;;;8.13;5.65;;;4.70;67.60;;;;;;5055029;28;20277;-71
2022/03/12 06:55:42;;;;;;;10.00;5.28;;;4.60;67.50;;;;;;5064631;28;20354;-72
2022/03/12 06:58:14;;;;;;;12.20;5.80;;;4.70;67.60;;;;;;5028477;28;20057;-72
2022/03/12 07:00:40;;;;;;;7.47;4.80;;;5.90;69.30;;;;;;5056757;28;20086;-72
2022/03/12 07:03:06;;;;;;;8.48;5.00;;;4.70;67.00;;;;;;5046130;28;20040;-72
2022/03/12 07:05:32;;;;;;;8.07;5.03;;;4.70;67.30;;;;;;5051078;28;20047;-72
2022/03/12 07:07:58;;;;;;;11.35;6.00;;;4.80;67.30;;;;;;5073584;28;20056;-72
2022/03/12 07:10:27;;;;;;;7.00;4.60;;;4.80;67.00;;;;;;5030066;28;20227;-72
2022/03/12 07:12:53;;;;;;;9.02;5.45;;;5.60;67.10;;;;;;5068022;28;20051;-71
2022/03/12 07:15:21;;;;;;;10.23;5.18;;;4.90;66.30;;;;;;5079556;28;20045;-71
2022/03/12 07:18:01;;;;;;;8.20;5.07;;;4.90;66.40;;;;;;5052528;28;20335;-71
2022/03/12 07:20:30;;;;;;;11.40;5.57;;;5.10;66.60;;;;;;5028816;28;20108;-71
2022/03/12 07:22:55;;;;;;;8.20;5.03;;;5.00;67.30;;;;;;5048964;28;20033;-71
2022/03/12 07:25:21;;;;;;;9.35;5.05;;;5.10;66.80;;;;;;5059776;28;20037;-71
2022/03/12 07:27:47;;;;;;;10.27;5.70;;;5.20;66.60;;;;;;5069993;28;20040;-71
2022/03/12 07:30:14;;;;;;;8.32;4.95;;;5.20;66.40;;;;;;5062487;28;20056;-72
2022/03/12 07:32:42;;;;;;;8.23;5.90;;;5.30;66.60;;;;;;5077084;28;20219;-71
2022/03/12 07:35:08;;;;;;;11.43;5.90;;;5.30;66.00;;;;;;5062484;28;20285;-71
2022/03/12 07:37:35;;;;;;;10.20;5.53;;;5.30;65.60;;;;;;5051445;28;20049;-71
2022/03/12 07:40:01;;;;;;;9.75;5.15;;;5.30;65.30;;;;;;5029240;28;20040;-71
2022/03/12 07:42:34;;;;;;;8.77;5.50;;;5.40;64.80;;;;;;5047309;28;20033;-72
2022/03/12 07:45:00;;;;;;;10.00;6.07;;;5.40;64.90;;;;;;5038644;28;20278;-71
2022/03/12 07:47:26;;;;;;;9.30;5.78;;;5.40;65.30;;;;;;5060188;28;20043;-71
2022/03/12 07:49:51;;;;;;;10.75;5.78;;;5.50;65.70;;;;;;5061468;28;20049;-71
2022/03/12 07:52:17;;;;;;;11.30;6.65;;;5.60;64.80;;;;;;5062278;28;20040;-72
2022/03/12 07:54:43;;;;;;;11.80;6.00;;;5.70;65.20;;;;;;5082342;28;20071;-73
2022/03/12 07:57:09;;;;;;;9.80;4.85;;;5.90;65.10;;;;;;5050496;28;20040;-72
2022/03/12 07:59:35;;;;;;;10.02;5.88;;;5.90;65.70;;;;;;5057532;28;20085;-72
2022/03/12 08:02:02;;;;;;;9.52;5.35;;;6.10;65.00;;;;;;5058552;28;20254;-72
2022/03/12 08:04:30;;;;;;;10.18;5.85;;;6.20;65.20;;;;;;5056417;28;20390;-72
2022/03/12 08:07:00;;;;;;;7.57;5.65;;;6.40;65.70;;;;;;5068870;28;20056;-72
2022/03/12 08:09:26;;;;;;;8.85;4.95;;;6.50;64.60;;;;;;5033231;28;20076;-72
2022/03/12 08:11:51;;;;;;;7.78;5.60;;;6.60;64.20;;;;;;5030692;28;20037;-72
2022/03/12 08:14:19;;;;;;;8.70;5.13;;;6.60;64.20;;;;;;5072836;28;20040;-71
2022/03/12 08:16:47;;;;;;;10.88;6.05;;;6.50;64.40;;;;;;5027084;28;20049;-71
2022/03/12 08:19:12;;;;;;;10.32;5.32;;;6.70;65.20;;;;;;5041869;28;20401;-71
2022/03/12 08:21:39;;;;;;;7.68;5.45;;;6.80;64.10;;;;;;5065273;28;20037;-71
2022/03/12 08:24:06;;;;;;;9.90;6.18;;;7.00;64.00;;;;;;5038582;28;20045;-72
2022/03/12 08:26:35;;;;;;;9.60;6.60;;;6.90;64.00;;;;;;5074375;28;20238;-72
2022/03/12 08:29:00;;;;;;;9.85;6.00;;;6.90;64.00;;;;;;5065997;28;20050;-72
2022/03/12 08:31:27;;;;;;;11.82;6.13;;;7.00;64.10;;;;;;5046858;28;20108;-72
2022/03/12 08:33:55;;;;;;;8.45;5.88;;;7.20;64.90;;;;;;5029433;28;20056;-73
2022/03/12 08:36:21;;;;;;;9.32;6.40;;;7.30;64.90;;;;;;5042410;28;20367;-73
2022/03/12 08:38:47;;;;;;;9.38;6.10;;;7.40;64.90;;;;;;5022440;28;20060;-71
2022/03/12 08:41:13;;;;;;;10.73;7.00;;;7.60;63.80;;;;;;5059870;28;20353;-74
2022/03/12 08:43:39;;;;;;;10.02;6.10;;;7.80;62.40;;;;;;5014233;28;20107;-71
2022/03/12 08:46:07;;;;;;;10.57;5.78;;;8.20;62.60;;;;;;5055167;28;20248;-72
2022/03/12 08:48:34;;;;;;;9.27;6.45;;;8.00;61.40;;;;;;5058825;28;20432;-71
2022/03/12 08:51:01;;;;;;;8.95;5.63;;;8.20;61.30;;;;;;5048746;28;20213;-72
2022/03/12 08:53:26;;;;;;;6.90;5.53;;;8.30;61.60;;;;;;5057602;28;20113;-72
2022/03/12 08:55:52;;;;;;;9.50;6.50;;;8.50;61.50;;;;;;5060159;28;20234;-72
2022/03/12 08:58:19;;;;;;;11.80;6.60;;;8.80;62.00;;;;;;5042193;28;20040;-71
2022/03/12 09:00:45;;;;;;;10.07;6.05;;;8.90;60.50;;;;;;5034806;28;20044;-71
2022/03/12 09:03:14;;;;;;;9.18;6.03;;;9.00;60.30;;;;;;5055245;28;20059;-71
2022/03/12 09:05:41;;;;;;;8.02;5.45;;;9.20;60.10;;;;;;5061635;28;20059;-72
2022/03/12 09:08:08;;;;;;;8.70;6.30;;;9.20;59.30;;;;;;5010982;28;20284;-72
2022/03/12 09:10:33;;;;;;;12.65;7.05;;;9.20;59.70;;;;;;5056085;28;20044;-72
2022/03/12 09:12:59;;;;;;;10.35;6.50;;;9.30;59.70;;;;;;5055710;28;20048;-71
2022/03/12 09:15:25;;;;;;;8.73;6.32;;;9.50;60.20;;;;;;5057404;28;20048;-71
2022/03/12 09:17:54;;;;;;;9.98;7.00;;;9.60;59.70;;;;;;5073344;28;20049;-71
2022/03/12 09:20:20;;;;;;;12.40;6.32;;;9.60;59.20;;;;;;5060360;28;20371;-74
2022/03/12 09:22:46;;;;;;;10.18;6.30;;;9.60;59.60;;;;;;5051182;28;20061;-74
2022/03/12 09:25:42;;;;;;;9.27;6.13;;;9.70;59.50;;;;;;5047025;28;20334;-75
2022/03/12 09:28:08;;;;;;;10.55;6.07;;;10.30;59.60;;;;;;5045457;28;20220;-76
2022/03/12 09:30:34;;;;;;;9.32;5.80;;;9.80;59.50;;;;;;5056692;28;20059;-76
2022/03/12 09:33:00;;;;;;;10.02;6.63;;;9.80;59.80;;;;;;5040128;28;20307;-75
2022/03/12 09:35:28;;;;;;;9.32;5.40;;;10.00;60.90;;;;;;5053016;28;20323;-76
2022/03/12 09:37:55;;;;;;;11.25;6.30;;;9.90;60.50;;;;;;5064587;28;20056;-74
2022/03/12 09:40:26;;;;;;;12.57;8.15;;;10.10;60.90;;;;;;5072457;28;20048;-74
2022/03/12 09:42:52;;;;;;;9.90;7.13;;;10.10;61.10;;;;;;5027411;28;20043;-73
2022/03/12 09:45:21;;;;;;;10.50;6.80;;;10.30;61.60;;;;;;5037484;28;20329;-73
2022/03/12 09:47:47;;;;;;;12.23;8.30;;;10.40;62.00;;;;;;5065919;28;20262;-72
2022/03/12 09:50:13;;;;;;;11.32;7.75;;;10.40;61.50;;;;;;5056312;28;20458;-73
2022/03/12 09:52:40;;;;;;;11.00;7.32;;;10.60;62.20;;;;;;5031867;28;20142;-74
2022/03/12 09:55:06;;;;;;;9.52;6.93;;;10.70;62.50;;;;;;5056140;28;20059;-75
2022/03/12 09:57:35;;;;;;;11.05;6.97;;;11.00;62.70;;;;;;5034896;28;20048;-77
2022/03/12 10:00:06;;;;;;;9.40;6.68;;;11.20;62.80;;;;;;5036135;28;20040;-74
2022/03/12 10:02:32;;;;;;;12.77;7.63;;;11.30;62.40;;;;;;5059664;28;20052;-77
2022/03/12 10:04:58;;;;;;;10.38;7.93;;;11.30;62.80;;;;;;5023405;28;20302;-75
2022/03/12 10:07:24;;;;;;;9.98;7.80;;;11.60;62.90;;;;;;5050147;28;20071;-74
2022/03/12 10:09:52;;;;;;;12.18;7.65;;;11.90;63.80;;;;;;5039522;28;20123;-74
2022/03/12 10:12:19;;;;;;;9.98;7.30;;;12.10;63.70;;;;;;5052829;28;20232;-74
2022/03/12 10:14:48;;;;;;;11.45;7.63;;;11.90;63.70;;;;;;5038838;28;20047;-73
2022/03/12 10:17:14;;;;;;;12.98;7.20;;;12.00;65.40;;;;;;5066820;28;20149;-74
2022/03/12 10:19:43;;;;;;;10.18;7.10;;;12.10;67.60;;;;;;5048516;28;20048;-75
2022/03/12 10:22:17;;;;;;;10.38;7.25;;;12.20;67.90;;;;;;5065364;28;20097;-76
2022/03/12 10:24:43;;;;;;;7.85;6.38;;;12.20;69.60;;;;;;5072428;28;20053;-75
2022/03/12 10:27:09;;;;;;;12.05;7.72;;;12.30;72.00;;;;;;5070641;28;20115;-74
2022/03/12 10:29:35;;;;;;;8.50;6.90;;;12.20;73.50;;;;;;5063842;28;20336;-74
2022/03/12 10:32:26;;;;;;;12.02;7.90;;;12.40;74.80;;;;;;5052572;28;20281;-74
2022/03/12 10:34:55;;;;;;;10.23;7.43;;;12.50;75.00;;;;;;5048237;28;20364;-75
2022/03/12 10:37:26;;;;;;;10.25;7.50;;;12.50;75.70;;;;;;5030108;28;20106;-75
2022/03/12 10:40:17;;;;;;;10.15;7.28;;;12.20;77.20;;;;;;5040976;28;20036;-74
2022/03/12 10:42:53;;;;;;;9.10;6.68;;;12.30;78.20;;;;;;5066703;28;20131;-74
2022/03/12 10:45:43;;;;;;;10.55;7.13;;;12.40;80.20;;;;;;5062285;28;20121;-75
2022/03/12 10:48:10;;;;;;;8.73;7.22;;;12.30;82.40;;;;;;5033490;28;20246;-74
2022/03/12 10:50:44;;;;;;;9.18;7.05;;;12.30;83.50;;;;;;5068314;28;20127;-73
2022/03/12 10:53:11;;;;;;;14.80;7.28;;;12.30;84.40;;;;;;5055716;28;20123;-75
2022/03/12 10:55:49;;;;;;;9.70;7.60;;;12.40;86.30;;;;;;5035641;28;20130;-74
2022/03/12 10:58:23;;;;;;;15.90;8.18;;;12.50;87.00;;;;;;5069923;28;20056;-74
2022/03/12 11:00:54;;;;;;;11.40;7.63;;;12.70;86.00;;;;;;5041900;28;20273;-75
2022/03/12 11:03:24;;;;;;;10.48;8.15;;;12.90;88.20;;;;;;5042762;28;20385;-74
2022/03/12 11:05:52;;;;;;;10.15;7.25;;;13.00;87.80;;;;;;5054995;28;20227;-75
2022/03/12 11:08:19;;;;;;;10.93;7.20;;;13.10;88.10;;;;;;5059639;28;20045;-75
2022/03/12 11:11:16;;;;;;;8.85;6.28;;;13.20;88.80;;;;;;5049900;28;20115;-75
2022/03/12 11:16:52;;;;;;;9.27;7.35;;;13.20;91.40;;;;;;5059570;28;20045;-73
2022/03/12 11:19:37;;;;;;;10.27;7.53;;;13.40;92.60;;;;;;5035413;28;20044;-73
2022/03/12 11:22:12;;;;;;;10.13;7.53;;;13.60;93.10;;;;;;5051488;28;20128;-73
2022/03/12 11:24:50;;;;;;;11.27;7.38;;;13.40;94.60;;;;;;5067349;28;20537;-73
2022/03/12 11:27:38;;;;;;;9.27;7.00;;;13.70;94.10;;;;;;5065291;28;20117;-74
2022/03/12 11:30:08;;;;;;;9.55;7.32;;;13.60;94.10;;;;;;5000432;28;20062;-72
2022/03/12 11:32:37;;;;;;;10.02;7.68;;;13.60;95.10;;;;;;5042624;28;20041;-72
2022/03/12 11:35:17;;;;;;;11.25;7.90;;;13.70;93.80;;;;;;5064516;28;20348;-74
2022/03/12 11:37:43;;;;;;;13.20;7.63;;;13.60;94.30;;;;;;5044291;28;20166;-73
2022/03/12 11:40:19;;;;;;;11.52;8.00;;;13.70;93.40;;;;;;5058949;28;20293;-73
2022/03/12 11:42:47;;;;;;;11.10;7.63;;;13.80;93.50;;;;;;5039347;28;20047;-73
2022/03/12 11:45:16;;;;;;;13.45;8.20;;;13.90;94.00;;;;;;5046470;28;20045;-72
2022/03/12 11:47:44;;;;;;;10.70;7.93;;;13.70;93.40;;;;;;5038188;28;20041;-73
2022/03/12 11:50:18;;;;;;;10.45;8.07;;;13.70;93.10;;;;;;5046562;28;20161;-72
2022/03/12 11:52:45;;;;;;;11.83;8.73;;;13.70;94.20;;;;;;5065422;28;20297;-72
2022/03/12 11:55:26;;;;;;;10.85;7.78;;;13.80;94.50;;;;;;5050121;28;20052;-73
2022/03/12 11:57:52;;;;;;;11.45;7.60;;;13.90;93.90;;;;;;5037199;28;20346;-72
2022/03/12 12:00:29;;;;;;;10.05;7.82;;;13.80;92.80;;;;;;5044902;28;20242;-72
2022/03/12 12:03:03;;;;;;;10.35;8.10;;;13.70;92.50;;;;;;5065253;28;20079;-73
2022/03/12 12:05:30;;;;;;;10.98;8.10;;;13.80;92.90;;;;;;5048828;28;20120;-72
2022/03/12 12:07:56;;;;;;;10.25;7.38;;;13.70;93.70;;;;;;5054709;28;20111;-73
2022/03/12 12:10:27;;;;;;;9.43;7.55;;;13.60;94.10;;;;;;5053648;28;20044;-76
2022/03/12 12:12:53;;;;;;;12.13;8.05;;;13.40;94.50;;;;;;5060926;28;20345;-72
2022/03/12 12:15:29;;;;;;;10.98;8.20;;;13.80;95.20;;;;;;5069745;28;20099;-73
2022/03/12 12:17:55;;;;;;;11.85;7.93;;;13.80;95.70;;;;;;5042006;28;20115;-73
2022/03/12 12:20:24;;;;;;;14.73;7.53;;;13.80;94.70;;;;;;5046555;28;20349;-72
2022/03/12 12:22:50;;;;;;;9.65;7.68;;;14.00;95.50;;;;;;5044509;28;20107;-72
2022/03/12 12:25:18;;;;;;;11.80;8.20;;;14.30;94.30;;;;;;5048564;28;20331;-72
2022/03/12 12:27:50;;;;;;;10.95;7.68;;;14.00;94.40;;;;;;5060335;28;20055;-76
2022/03/12 12:30:39;;;;;;;11.07;8.27;;;14.00;94.60;;;;;;5058992;28;20051;-72
2022/03/12 12:33:26;;;;;;;12.45;7.53;;;14.00;95.20;;;;;;5072573;28;20137;-73
2022/03/12 12:36:13;;;;;;;8.68;7.18;;;14.20;95.40;;;;;;5061543;28;20115;-74
2022/03/12 12:38:43;;;;;;;7.97;5.93;;;14.40;95.20;;;;;;5038461;28;20049;-72
2022/03/12 12:41:10;;;;;;;12.10;6.57;;;14.40;94.00;;;;;;5048338;28;20041;-72
2022/03/12 12:43:45;;;;;;;10.20;6.90;;;14.30;94.80;;;;;;5043803;28;20208;-73
2022/03/12 12:46:12;;;;;;;;;;;14.30;94.90;;;;;;5061264;28;20032;-73
2022/03/12 12:49:00;;;;;;;10.10;6.55;;;14.10;95.10;;;;;;5068746;28;19993;-71
2022/03/12 12:51:27;;;;;;;10.93;6.68;;;14.20;96.80;;;;;;5047319;28;20048;-72
2022/03/12 12:53:57;;;;;;;7.72;5.95;;;14.20;96.20;;;;;;5037507;28;20052;-73
2022/03/12 12:56:35;;;;;;;9.55;7.18;;;14.20;96.70;;;;;;5059481;28;20353;-72
2022/03/12 12:59:06;;;;;;;9.32;6.28;;;14.10;96.30;;;;;;5068125;28;20055;-72
2022/03/12 13:01:52;;;;;;;10.05;7.00;;;14.30;96.50;;;;;;5052403;28;20039;-73